createdAt,value
2022-08-16T00:01:33.988Z,17.13
2022-08-16T00:04:01.985Z,16.93
2022-08-16T00:06:33.410Z,17.40
2022-08-16T00:09:02.272Z,17.10
2022-08-16T00:11:29.826Z,16.63
2022-08-16T00:13:57.486Z,16.73
2022-08-16T00:17:01.068Z,16.20
2022-08-16T00:19:14.021Z,16.93
2022-08-16T00:21:42.348Z,16.70
2022-08-16T00:24:12.695Z,16.57
2022-08-16T00:26:43.938Z,16.70
2022-08-16T00:29:13.421Z,16.60
2022-08-16T00:31:59.435Z,15.87
2022-08-16T00:34:44.726Z,15.70
2022-08-16T00:37:20.227Z,16.13
2022-08-16T00:39:58.278Z,15.80
2022-08-16T00:42:30.595Z,15.60
2022-08-16T00:45:06.448Z,16.87
2022-08-16T00:47:38.269Z,15.87
2022-08-16T00:50:11.356Z,16.27
2022-08-16T00:52:45.981Z,15.33
2022-08-16T00:55:21.901Z,16.27
2022-08-16T00:58:00.200Z,15.57
2022-08-16T01:00:30.028Z,15.30
2022-08-16T01:02:59.629Z,15.53
2022-08-16T01:05:27.480Z,15.37
2022-08-16T01:07:57.326Z,15.53
2022-08-16T01:10:32.549Z,16.30
2022-08-16T01:13:01.931Z,15.13
2022-08-16T01:15:32.883Z,15.20
2022-08-16T01:18:01.365Z,15.07
2022-08-16T01:20:32.834Z,14.83
2022-08-16T01:23:08.451Z,15.07
2022-08-16T01:25:40.365Z,15.03
2022-08-16T01:28:09.219Z,15.37
2022-08-16T01:30:39.870Z,15.57
2022-08-16T01:33:19.229Z,15.00
2022-08-16T01:35:52.516Z,14.40
2022-08-16T01:38:25.976Z,15.07
2022-08-16T01:41:01.794Z,14.77
2022-08-16T01:43:31.453Z,15.10
2022-08-16T01:46:29.779Z,14.93
2022-08-16T01:48:49.438Z,15.10
2022-08-16T01:51:18.058Z,15.17
2022-08-16T01:53:54.674Z,15.03
2022-08-16T01:56:30.312Z,14.50
2022-08-16T01:59:04.596Z,14.07
2022-08-16T02:01:34.559Z,14.33
2022-08-16T02:04:06.190Z,14.07
2022-08-16T02:06:40.278Z,14.23
2022-08-16T02:09:17.832Z,14.77
2022-08-16T02:11:53.165Z,14.30
2022-08-16T02:14:26.496Z,14.80
2022-08-16T02:16:57.380Z,14.33
2022-08-16T02:19:58.510Z,14.17
2022-08-16T02:22:33.667Z,13.60
2022-08-16T02:25:04.906Z,14.60
2022-08-16T02:27:34.891Z,14.20
2022-08-16T02:30:07.585Z,14.23
2022-08-16T02:32:49.878Z,13.97
2022-08-16T02:35:23.239Z,13.23
2022-08-16T02:37:52.854Z,13.80
2022-08-16T02:40:23.781Z,13.97
2022-08-16T02:42:56.359Z,13.90
2022-08-16T02:45:28.012Z,13.93
2022-08-16T02:48:01.029Z,13.77
2022-08-16T02:50:53.873Z,13.87
2022-08-16T02:53:30.853Z,14.00
2022-08-16T02:55:59.177Z,13.40
2022-08-16T02:58:33.671Z,13.60
2022-08-16T03:01:02.012Z,14.07
2022-08-16T03:04:29.144Z,13.43
2022-08-16T03:06:41.565Z,14.53
2022-08-16T03:09:16.376Z,13.83
2022-08-16T03:11:48.762Z,14.93
2022-08-16T03:14:21.296Z,14.33
2022-08-16T03:16:59.964Z,13.40
2022-08-16T03:19:48.217Z,14.53
2022-08-16T03:22:27.958Z,15.00
2022-08-16T03:25:01.187Z,14.10
2022-08-16T03:27:32.274Z,13.43
2022-08-16T03:30:16.179Z,13.63
2022-08-16T03:32:51.579Z,13.77
2022-08-16T03:35:21.254Z,13.70
2022-08-16T03:38:02.462Z,13.73
2022-08-16T03:40:36.422Z,13.80
2022-08-16T03:43:20.715Z,12.77
2022-08-16T03:45:53.755Z,13.50
2022-08-16T03:48:39.792Z,13.00
2022-08-16T03:51:14.071Z,13.90
2022-08-16T03:54:00.701Z,14.10
2022-08-16T03:56:30.505Z,13.20
2022-08-16T03:58:58.974Z,12.87
2022-08-16T04:01:32.105Z,13.77
2022-08-16T04:04:01.530Z,13.83
2022-08-16T04:06:30.295Z,14.37
2022-08-16T04:08:57.925Z,13.90
2022-08-16T04:11:25.501Z,14.10
2022-08-16T04:14:00.236Z,13.60
2022-08-16T04:16:42.408Z,12.80
2022-08-16T04:19:31.601Z,13.17
2022-08-16T04:22:00.661Z,13.37
2022-08-16T04:24:31.543Z,13.27
2022-08-16T04:26:59.737Z,12.33
2022-08-16T04:29:27.816Z,12.90
2022-08-16T04:32:13.751Z,13.37
2022-08-16T04:34:43.373Z,13.90
2022-08-16T04:37:12.501Z,13.07
2022-08-16T04:39:47.175Z,13.00
2022-08-16T04:42:26.535Z,13.90
2022-08-16T04:44:58.277Z,13.63
2022-08-16T04:47:35.585Z,13.47
2022-08-16T04:50:10.348Z,12.27
2022-08-16T04:52:38.916Z,12.20
2022-08-16T04:55:09.889Z,11.80
2022-08-16T04:57:41.220Z,12.00
2022-08-16T05:00:30.495Z,12.63
2022-08-16T05:03:09.473Z,11.37
2022-08-16T05:05:59.007Z,11.30
2022-08-16T05:08:33.000Z,11.40
2022-08-16T05:11:13.370Z,11.83
2022-08-16T05:13:43.031Z,11.37
2022-08-16T05:16:21.568Z,12.10
2022-08-16T05:18:58.431Z,11.70
2022-08-16T05:21:38.024Z,12.37
2022-08-16T05:24:09.650Z,11.80
2022-08-16T05:26:40.991Z,12.37
2022-08-16T05:29:15.279Z,12.67
2022-08-16T05:31:53.175Z,11.93
2022-08-16T05:34:22.757Z,11.80
2022-08-16T05:36:57.220Z,12.27
2022-08-16T05:39:29.391Z,12.53
2022-08-16T05:42:01.146Z,12.63
2022-08-16T05:44:29.109Z,13.30
2022-08-16T05:47:00.805Z,12.57
2022-08-16T05:49:39.277Z,13.07
2022-08-16T05:52:11.555Z,13.40
2022-08-16T05:54:46.577Z,12.90
2022-08-16T05:57:15.214Z,12.97
2022-08-16T05:59:42.930Z,13.13
2022-08-16T06:02:10.829Z,13.90
2022-08-16T06:04:44.992Z,13.70
2022-08-16T06:07:24.680Z,13.90
2022-08-16T06:10:05.115Z,13.80
2022-08-16T06:12:35.545Z,13.57
2022-08-16T06:15:10.178Z,14.40
2022-08-16T06:17:42.610Z,14.20
2022-08-16T06:20:18.591Z,13.90
2022-08-16T06:22:58.740Z,13.97
2022-08-16T06:25:39.740Z,14.60
2022-08-16T06:28:17.125Z,14.10
2022-08-16T06:30:58.548Z,14.37
2022-08-16T06:33:26.203Z,14.43
2022-08-16T06:35:59.574Z,14.67
2022-08-16T06:38:33.739Z,14.87
2022-08-16T06:41:13.608Z,14.13
2022-08-16T06:43:42.359Z,14.97
2022-08-16T06:46:32.057Z,14.80
2022-08-16T06:49:05.232Z,14.90
2022-08-16T06:51:46.089Z,15.10
2022-08-16T06:54:18.901Z,14.93
2022-08-16T06:56:46.602Z,15.43
2022-08-16T06:59:15.613Z,15.53
2022-08-16T07:01:53.422Z,15.97
2022-08-16T07:04:32.473Z,14.87
2022-08-16T07:07:09.892Z,15.10
2022-08-16T07:09:38.507Z,15.05
2022-08-16T07:12:07.050Z,16.02
2022-08-16T07:14:38.939Z,15.90
2022-08-16T07:17:08.150Z,16.13
2022-08-16T07:20:02.801Z,16.08
2022-08-16T07:22:52.887Z,16.75
2022-08-16T07:25:28.203Z,16.50
2022-08-16T07:27:55.886Z,16.40
2022-08-16T07:30:45.663Z,16.40
2022-08-16T07:33:51.899Z,16.40
2022-08-16T07:36:23.173Z,15.90
2022-08-16T07:38:53.827Z,16.77
2022-08-16T07:41:23.039Z,16.75
2022-08-16T07:43:57.844Z,16.58
2022-08-16T07:46:38.470Z,16.35
2022-08-16T07:49:15.568Z,17.08
2022-08-16T07:51:46.724Z,17.42
2022-08-16T07:54:21.344Z,17.83
2022-08-16T07:57:07.836Z,17.20
2022-08-16T07:59:46.295Z,17.48
2022-08-16T08:02:20.128Z,17.30
2022-08-16T08:04:53.776Z,16.85
2022-08-16T08:07:21.633Z,17.73
2022-08-16T08:09:53.313Z,17.05
2022-08-16T08:12:32.171Z,16.65
2022-08-16T08:15:05.830Z,17.80
2022-08-16T08:17:42.517Z,17.33
2022-08-16T08:20:20.846Z,17.17
2022-08-16T08:22:59.949Z,18.45
2022-08-16T08:25:54.917Z,17.50
2022-08-16T08:28:19.868Z,17.13
2022-08-16T08:31:01.048Z,18.23
2022-08-16T08:33:32.303Z,18.25
2022-08-16T08:36:04.890Z,17.83
2022-08-16T08:38:44.119Z,17.58
2022-08-16T08:41:15.279Z,17.80
2022-08-16T08:43:46.671Z,18.15
2022-08-16T08:46:18.191Z,17.92
2022-08-16T08:48:59.869Z,18.58
2022-08-16T08:51:37.188Z,19.08
2022-08-16T08:54:09.763Z,18.67
2022-08-16T08:56:45.510Z,19.38
2022-08-16T08:59:28.654Z,18.73
2022-08-16T09:01:58.613Z,18.27
2022-08-16T09:04:31.438Z,19.02
2022-08-16T09:07:01.332Z,18.23
2022-08-16T09:09:33.516Z,18.40
2022-08-16T09:12:06.986Z,18.58
2022-08-16T09:14:50.939Z,18.80
2022-08-16T09:17:45.478Z,18.90
2022-08-16T09:20:14.382Z,19.02
2022-08-16T09:22:51.330Z,18.60
2022-08-16T09:25:26.228Z,18.92
2022-08-16T09:27:58.008Z,18.10
2022-08-16T09:30:43.251Z,19.27
2022-08-16T09:33:14.454Z,18.98
2022-08-16T09:35:42.817Z,17.95
2022-08-16T09:38:12.167Z,18.20
2022-08-16T09:40:42.614Z,18.15
2022-08-16T09:43:46.468Z,18.98
2022-08-16T09:46:02.659Z,18.45
2022-08-16T09:48:44.182Z,18.30
2022-08-16T09:51:18.281Z,18.20
2022-08-16T09:53:53.978Z,18.42
2022-08-16T09:56:27.557Z,18.67
2022-08-16T09:59:03.790Z,19.35
2022-08-16T10:01:33.584Z,18.90
2022-08-16T10:04:04.076Z,19.23
2022-08-16T10:06:33.499Z,17.17
2022-08-16T10:09:05.347Z,17.20
2022-08-16T10:11:51.738Z,16.70
2022-08-16T10:14:24.463Z,16.95
2022-08-16T10:16:59.764Z,16.35
2022-08-16T10:19:29.833Z,16.77
2022-08-16T10:22:05.048Z,16.67
2022-08-16T10:24:32.969Z,17.27
2022-08-16T10:27:18.803Z,16.88
2022-08-16T10:30:01.189Z,16.80
2022-08-16T10:32:35.267Z,16.58
2022-08-16T10:35:03.673Z,16.55
2022-08-16T10:37:32.499Z,16.75
2022-08-16T10:40:06.151Z,17.33
2022-08-16T10:42:53.733Z,17.38
2022-08-16T10:45:23.027Z,17.20
2022-08-16T10:48:00.543Z,16.80
2022-08-16T10:50:32.276Z,16.08
2022-08-16T10:52:59.890Z,17.08
2022-08-16T10:55:46.098Z,16.67
2022-08-16T10:58:17.131Z,16.60
2022-08-16T11:00:47.162Z,16.17
2022-08-16T11:06:06.410Z,16.67
2022-08-16T11:08:39.630Z,17.55
2022-08-16T11:11:18.514Z,17.50
2022-08-16T11:14:11.059Z,17.98
2022-08-16T11:19:28.336Z,15.70
2022-08-16T11:22:38.560Z,16.40
2022-08-16T11:24:46.093Z,15.98
2022-08-16T11:27:36.038Z,16.00
2022-08-16T11:30:19.846Z,16.90
2022-08-16T11:32:49.414Z,15.95
2022-08-16T11:35:19.030Z,16.25
2022-08-16T11:38:46.978Z,16.05
2022-08-16T11:41:00.171Z,16.05
2022-08-16T11:43:30.057Z,15.95
2022-08-16T11:46:01.479Z,16.85
2022-08-16T11:48:49.977Z,16.25
2022-08-16T11:51:17.543Z,16.88
2022-08-16T11:53:45.741Z,16.13
2022-08-16T11:56:14.919Z,16.38
2022-08-16T11:58:42.645Z,15.65
2022-08-16T12:01:29.946Z,16.00
2022-08-16T12:04:11.076Z,15.48
2022-08-16T12:06:41.407Z,15.82
2022-08-16T12:09:10.125Z,15.57
2022-08-16T12:11:40.363Z,15.00
2022-08-16T12:14:11.396Z,15.48
2022-08-16T12:16:38.989Z,16.15
2022-08-16T12:19:17.794Z,15.63
2022-08-16T12:21:58.859Z,15.40
2022-08-16T12:24:28.134Z,15.38
2022-08-16T12:26:55.938Z,16.05
2022-08-16T12:29:25.859Z,14.85
2022-08-16T14:12:55.860Z,16.08
2022-08-16T14:15:23.575Z,16.23
2022-08-16T14:18:17.124Z,15.52
2022-08-16T14:20:39.357Z,15.77
2022-08-16T14:23:24.465Z,15.23
2022-08-16T14:25:53.906Z,15.13
2022-08-16T14:28:25.822Z,14.88
2022-08-16T14:30:54.270Z,14.82
2022-08-16T14:33:22.312Z,15.32
2022-08-16T14:35:50.842Z,15.80
2022-08-16T14:38:23.504Z,15.35
2022-08-16T14:40:55.155Z,15.35
2022-08-16T14:43:24.841Z,15.68
2022-08-16T14:45:54.887Z,22.67
2022-08-16T14:48:26.052Z,15.60
2022-08-16T14:50:54.676Z,15.07
2022-08-16T14:53:23.796Z,14.75
2022-08-16T14:55:51.391Z,14.15
2022-08-16T14:58:20.250Z,15.90
2022-08-16T15:01:04.553Z,15.48
2022-08-16T15:03:32.931Z,15.48
2022-08-16T15:06:01.823Z,15.05
2022-08-16T15:08:36.231Z,15.60
2022-08-16T15:11:05.966Z,14.98
2022-08-16T15:13:42.914Z,15.10
2022-08-16T15:16:14.278Z,15.00
2022-08-16T15:18:41.905Z,15.90
2022-08-16T15:21:14.334Z,15.50
2022-08-16T15:23:42.015Z,15.13
2022-08-16T15:26:10.993Z,15.63
2022-08-16T15:28:46.415Z,15.68
2022-08-16T15:31:16.092Z,15.07
2022-08-16T15:33:55.093Z,15.18
2022-08-16T15:36:25.934Z,15.55
2022-08-16T15:39:05.793Z,15.25
2022-08-16T15:42:07.105Z,15.35
2022-08-16T15:44:51.297Z,15.00
2022-08-16T15:47:26.241Z,15.35
2022-08-16T15:49:55.564Z,15.43
2022-08-16T15:52:29.448Z,15.48
2022-08-16T15:55:13.279Z,15.07
2022-08-16T15:57:53.993Z,14.85
2022-08-16T16:00:26.713Z,14.18
2022-08-16T16:03:08.496Z,14.93
2022-08-16T16:05:37.289Z,15.20
2022-08-16T16:08:10.850Z,17.75
2022-08-16T16:10:43.247Z,15.90
2022-08-16T16:13:15.421Z,16.50
2022-08-16T16:15:45.711Z,16.98
2022-08-16T16:18:15.799Z,16.73
2022-08-16T16:20:47.335Z,17.48
2022-08-16T16:23:23.445Z,16.70
2022-08-16T16:25:51.571Z,16.20
2022-08-16T16:28:51.397Z,16.70
2022-08-16T16:31:12.311Z,16.20
2022-08-16T16:33:44.323Z,16.90
2022-08-16T16:36:15.048Z,16.88
2022-08-16T16:38:45.510Z,17.10
2022-08-16T16:41:13.742Z,16.65
2022-08-16T16:43:44.395Z,17.23
2022-08-16T16:46:40.651Z,16.95
2022-08-16T16:49:08.508Z,17.40
2022-08-16T16:51:40.367Z,16.30
2022-08-16T16:54:12.862Z,17.10
2022-08-16T16:56:49.857Z,16.73
2022-08-16T16:59:28.034Z,16.60
2022-08-16T17:02:01.464Z,17.20
2022-08-16T17:04:48.017Z,16.77
2022-08-16T17:07:16.359Z,16.42
2022-08-16T17:09:45.568Z,16.02
2022-08-16T17:12:25.445Z,17.02
2022-08-16T17:15:01.221Z,17.05
2022-08-16T17:17:58.976Z,17.00
2022-08-16T17:20:22.510Z,16.70
2022-08-16T17:22:54.715Z,17.35
2022-08-16T17:25:24.094Z,17.80
2022-08-16T17:27:54.558Z,17.13
2022-08-16T17:33:20.811Z,17.20
2022-08-16T17:35:55.339Z,17.30
2022-08-16T17:38:38.811Z,16.65
2022-08-16T17:39:28.531Z,16.98
2022-08-16T17:41:12.654Z,16.90
2022-08-16T17:43:44.407Z,17.38
2022-08-16T17:46:41.375Z,17.55
2022-08-16T17:49:03.863Z,17.60
2022-08-16T17:51:36.216Z,18.02
2022-08-16T17:54:04.441Z,18.00
2022-08-16T17:56:32.461Z,17.42
2022-08-16T17:59:01.108Z,17.48
2022-08-16T18:01:29.420Z,17.58
2022-08-16T18:04:06.638Z,18.03
2022-08-16T18:06:38.462Z,18.05
2022-08-16T18:09:06.965Z,18.35
2022-08-16T18:12:44.876Z,17.10
2022-08-16T18:16:33.555Z,17.20
2022-08-16T18:20:14.739Z,17.48
2022-08-16T18:23:56.622Z,16.73
2022-08-16T18:27:38.220Z,16.73
2022-08-16T18:31:19.677Z,17.13
2022-08-16T18:35:03.331Z,17.07
2022-08-16T18:38:44.765Z,17.23
2022-08-16T18:42:26.641Z,17.30
2022-08-16T18:46:07.910Z,17.03
2022-08-16T18:49:49.441Z,16.70
2022-08-16T18:53:30.682Z,17.27
2022-08-16T18:57:12.395Z,16.77
2022-08-16T19:00:56.453Z,16.50
2022-08-16T19:04:56.876Z,16.90
2022-08-16T19:08:39.978Z,16.63
2022-08-16T19:12:37.970Z,16.63
2022-08-16T19:16:23.758Z,16.13
2022-08-16T19:20:10.392Z,17.07
2022-08-16T19:23:52.820Z,15.73
2022-08-16T19:27:33.999Z,16.00
2022-08-16T19:31:17.303Z,15.50
2022-08-16T19:34:58.792Z,16.40
2022-08-16T19:38:40.285Z,15.90
2022-08-16T19:42:23.486Z,16.70
2022-08-16T19:46:05.343Z,15.40
2022-08-16T19:49:46.821Z,15.50
2022-08-16T19:53:28.161Z,16.03
2022-08-16T19:57:09.996Z,16.17
2022-08-16T20:00:52.371Z,15.40
2022-08-16T20:04:37.615Z,15.93
2022-08-16T20:08:18.787Z,15.33
2022-08-16T20:11:18.676Z,17.20
2022-08-16T20:13:46.180Z,17.33
2022-08-16T20:16:14.462Z,16.77
2022-08-16T20:18:42.235Z,16.63
2022-08-16T20:21:09.827Z,16.17
2022-08-16T20:23:37.333Z,15.80
2022-08-16T20:26:04.826Z,16.57
2022-08-16T20:28:52.075Z,16.27
2022-08-16T20:31:21.285Z,16.07
2022-08-16T20:33:48.933Z,16.40
2022-08-16T20:36:16.866Z,16.00
2022-08-16T20:38:46.652Z,15.83
2022-08-16T20:41:14.371Z,15.73
2022-08-16T20:43:43.365Z,15.33
2022-08-16T20:46:10.994Z,15.80
2022-08-16T20:48:38.501Z,15.80
2022-08-16T20:51:10.347Z,15.50
2022-08-16T20:53:38.241Z,16.00
2022-08-16T20:56:06.734Z,15.83
2022-08-16T20:58:34.591Z,15.93
2022-08-16T21:01:04.178Z,16.67
2022-08-16T21:03:31.921Z,16.30
2022-08-16T21:06:01.900Z,17.33
2022-08-16T21:08:51.952Z,16.63
2022-08-16T21:11:17.833Z,16.77
2022-08-16T21:13:45.399Z,17.10
2022-08-16T21:16:16.348Z,16.87
2022-08-16T21:18:43.958Z,16.27
2022-08-16T21:21:14.149Z,15.97
2022-08-16T21:23:41.770Z,15.07
2022-08-16T21:26:11.150Z,15.47
2022-08-16T21:28:42.754Z,15.27
2022-08-16T21:31:11.489Z,15.80
2022-08-16T21:33:40.728Z,15.13
2022-08-16T21:36:09.098Z,15.13
2022-08-16T21:38:36.750Z,14.07
2022-08-16T21:41:08.121Z,14.90
2022-08-16T21:43:35.847Z,15.27
2022-08-16T21:46:05.922Z,15.47
2022-08-16T21:48:36.007Z,15.63
2022-08-16T21:51:06.070Z,14.47
2022-08-16T21:53:33.977Z,14.13
2022-08-16T21:56:01.901Z,14.77
2022-08-16T21:58:29.934Z,13.90
2022-08-16T22:00:57.808Z,14.93
2022-08-16T22:03:25.377Z,14.60
2022-08-16T22:06:13.590Z,14.97
2022-08-16T22:08:49.306Z,14.80
2022-08-16T22:11:19.261Z,14.67
2022-08-16T22:13:57.674Z,14.77
2022-08-16T22:16:27.587Z,15.10
2022-08-16T22:18:55.231Z,15.80
2022-08-16T22:21:22.813Z,15.70
2022-08-16T22:23:56.885Z,15.57
2022-08-16T22:26:31.046Z,15.73
2022-08-16T22:29:00.410Z,15.47
2022-08-16T22:31:28.026Z,16.00
2022-08-16T22:33:56.462Z,15.90
2022-08-16T22:36:24.394Z,16.17
2022-08-16T22:38:58.741Z,15.37
2022-08-16T22:41:27.589Z,15.33
2022-08-16T22:43:55.523Z,15.00
2022-08-16T22:46:23.149Z,15.30
2022-08-16T22:48:51.017Z,14.30
2022-08-16T22:51:18.746Z,15.00
2022-08-16T22:53:46.598Z,15.17
2022-08-16T22:56:15.884Z,15.23
2022-08-16T22:58:43.690Z,16.03
2022-08-16T23:01:12.013Z,15.73
2022-08-16T23:03:40.155Z,15.70
2022-08-16T23:06:08.626Z,14.73
2022-08-16T23:08:40.963Z,14.33
2022-08-16T23:11:10.933Z,14.03
2022-08-16T23:13:52.804Z,13.43
2022-08-16T23:16:29.202Z,14.60
2022-08-16T23:19:02.078Z,14.90
2022-08-16T23:21:30.018Z,14.77
2022-08-16T23:23:57.571Z,14.43
2022-08-16T23:26:36.555Z,14.27
2022-08-16T23:29:22.557Z,14.37
2022-08-16T23:31:54.521Z,15.07
2022-08-16T23:34:22.351Z,14.87
2022-08-16T23:36:52.727Z,15.57
2022-08-16T23:39:20.282Z,15.83
2022-08-16T23:41:47.897Z,15.90
2022-08-16T23:44:57.832Z,14.70
2022-08-16T23:47:05.183Z,15.30
2022-08-16T23:49:57.018Z,15.53
2022-08-16T23:52:53.944Z,16.83
2022-08-16T23:55:08.770Z,16.47
2022-08-16T23:57:36.354Z,16.37
